Time;durP1;ratioP1;P1;durP2;ratioP2;P2;SDS_P1;SDS_P2;PMS_P1;PMS_P2;Temp;Humidity;BMP_temperature;BMP_pressure;BME280_temperature;BME280_humidity;BME280_pressure;Samples;Min_cycle;Max_cycle;Signal;HPM_P1;HPM_P2
2023/02/11 19:58:35;;;;;;;38.80;26.10;;;;;;;21.38;34.71;99836.16;101822;1288;637284;-59
2023/02/11 20:01:11;;;;;;;40.40;26.90;;;;;;;22.28;35.20;99835.59;104278;1270;94431;-60
2023/02/11 20:03:40;;;;;;;37.30;26.00;;;;;;;23.41;35.12;99834.06;104067;1272;94372;-58
2023/02/11 20:06:15;;;;;;;39.00;26.30;;;;;;;24.18;35.10;99831.63;104064;1272;106737;-60
2023/02/11 20:08:44;;;;;;;39.90;27.40;;;;;;;24.75;34.93;99836.05;103877;1271;101105;-58
2023/02/11 20:11:16;;;;;;;38.80;27.80;;;;;;;25.13;34.86;99834.27;104004;1272;205921;-60
2023/02/11 20:13:44;;;;;;;38.10;26.40;;;;;;;25.47;34.56;99836.12;104294;1273;94298;-61
2023/02/11 20:16:17;;;;;;;42.90;27.60;;;;;;;25.73;34.45;99839.95;104127;1271;95164;-62
2023/02/11 20:21:48;;;;;;;42.20;27.80;;;;;;;26.36;34.31;99835.74;102225;1296;635849;-61
2023/02/11 20:24:17;;;;;;;38.70;26.30;;;;;;;26.58;34.37;99838.69;104002;1272;94870;-59
2023/02/11 20:26:47;;;;;;;41.60;28.40;;;;;;;26.82;34.09;99842.65;104182;1266;94398;-61
2023/02/11 20:29:16;;;;;;;41.20;26.90;;;;;;;27.03;34.14;99842.77;104674;1259;107693;-60
2023/02/11 20:34:16;;;;;;;50.60;30.80;;;;;;;25.53;29.85;99857.23;101684;1298;635985;-66
2023/02/11 20:36:50;;;;;;;46.70;30.40;;;;;;;20.32;29.19;99870.30;104128;1268;94393;-66
2023/02/11 20:39:21;;;;;;;49.50;33.50;;;;;;;15.89;30.43;99884.45;104442;1270;94218;-67
2023/02/11 20:41:50;;;;;;;42.90;29.70;;;;;;;13.07;31.08;99897.14;104093;1269;106420;-67
2023/02/11 20:44:23;;;;;;;45.10;29.60;;;;;;;11.07;32.47;99907.77;104604;1260;102387;-66
2023/02/11 20:46:52;;;;;;;44.30;30.00;;;;;;;9.37;33.85;99911.99;104732;1261;149877;-66
2023/02/11 20:49:23;;;;;;;59.60;38.80;;;;;;;7.98;34.21;99915.09;104534;1260;94312;-66
2023/02/11 20:51:52;;;;;;;89.70;50.80;;;;;;;7.09;33.00;99919.42;105090;1260;94313;-66
2023/02/11 20:54:22;;;;;;;49.80;30.90;;;;;;;6.30;38.48;99928.91;104581;1256;106547;-66
2023/02/11 20:56:52;;;;;;;58.40;33.60;;;;;;;5.55;36.31;99929.89;104559;1261;100443;-66
2023/02/11 20:59:21;;;;;;;63.50;38.60;;;;;;;5.02;35.41;99933.59;104538;1261;107641;-66
2023/02/11 21:01:54;;;;;;;67.50;38.50;;;;;;;4.55;37.25;99934.70;104718;1260;95366;-66
2023/02/11 21:04:26;;;;;;;78.40;48.00;;;;;;;4.16;36.68;99941.76;104845;1262;95257;-66
2023/02/11 21:06:58;;;;;;;98.70;56.00;;;;;;;3.82;38.17;99941.94;104549;1256;108592;-66
2023/02/11 21:09:29;;;;;;;108.10;65.20;;;;;;;3.53;40.41;99948.60;104645;1260;102344;-66
2023/02/11 21:11:57;;;;;;;82.60;54.50;;;;;;;3.27;39.08;99947.74;104710;1260;107845;-66
2023/02/11 21:14:25;;;;;;;70.40;45.10;;;;;;;3.09;40.98;99947.06;105055;1256;96214;-67
2023/02/11 21:16:54;;;;;;;67.20;41.40;;;;;;;2.92;42.80;99952.06;104817;1258;95265;-66
2023/02/11 21:19:21;;;;;;;103.60;62.40;;;;;;;2.77;39.24;99951.74;104911;1259;107999;-66
2023/02/11 21:21:53;;;;;;;56.20;33.60;;;;;;;2.66;39.15;99945.39;104667;1260;102140;-67
2023/02/11 21:24:22;;;;;;;59.50;34.00;;;;;;;2.55;38.29;99943.55;104825;1260;107584;-66
2023/02/11 21:26:50;;;;;;;58.30;35.30;;;;;;;2.46;40.36;99943.96;104183;1271;95193;-67
2023/02/11 21:29:18;;;;;;;59.70;34.60;;;;;;;2.38;42.15;99945.39;108396;1256;93241;-67
2023/02/11 21:31:46;;;;;;;55.80;33.30;;;;;;;2.31;41.66;99949.06;104277;1261;107620;-67
2023/02/11 21:34:15;;;;;;;77.20;42.40;;;;;;;2.27;42.13;99953.35;108400;1256;101398;-67
2023/02/11 21:36:44;;;;;;;60.40;35.00;;;;;;;2.22;41.53;99956.80;106838;1259;106261;-67
2023/02/11 21:39:12;;;;;;;56.00;30.80;;;;;;;2.19;44.97;99963.18;104501;1261;95382;-65
2023/02/11 21:41:40;;;;;;;55.10;31.30;;;;;;;2.17;42.24;99957.27;104869;1258;95657;-66
2023/02/11 21:44:08;;;;;;;55.30;32.40;;;;;;;2.16;42.48;99961.33;104570;1260;109461;-65
2023/02/11 21:46:37;;;;;;;53.70;31.40;;;;;;;2.13;44.52;99961.75;104832;1260;101514;-65
2023/02/11 21:49:05;;;;;;;52.10;30.10;;;;;;;2.12;44.48;99962.82;108393;1256;107105;-65
2023/02/11 21:51:33;;;;;;;53.50;32.50;;;;;;;2.10;45.93;99959.36;105489;1260;95322;-65
2023/02/11 21:54:02;;;;;;;72.20;43.50;;;;;;;2.09;45.84;99962.88;104675;1273;95659;-65
2023/02/11 21:56:34;;;;;;;85.20;45.60;;;;;;;2.08;46.20;99967.27;104502;1273;108555;-65
2023/02/11 21:59:02;;;;;;;88.00;56.40;;;;;;;2.06;45.42;99958.73;104642;1267;101233;-65
2023/02/11 22:01:34;;;;;;;65.10;37.60;;;;;;;2.06;45.19;99958.23;104758;1256;108890;-64
2023/02/11 22:04:02;;;;;;;57.00;32.40;;;;;;;2.06;46.72;99960.85;104610;1261;96176;-65
2023/02/11 22:06:32;;;;;;;57.90;33.00;;;;;;;2.05;45.77;99963.67;104775;1260;95781;-65
2023/02/11 22:09:05;;;;;;;55.30;31.10;;;;;;;2.04;44.89;99962.81;104454;1260;108589;-65
2023/02/11 22:11:35;;;;;;;73.80;40.20;;;;;;;2.02;45.62;99967.42;107440;1259;101350;-65
2023/02/11 22:14:03;;;;;;;66.80;35.80;;;;;;;2.02;45.05;99973.55;106281;1260;108197;-65
2023/02/11 22:16:31;;;;;;;76.20;41.10;;;;;;;2.02;47.10;99973.40;104551;1262;95287;-65
2023/02/11 22:19:01;;;;;;;73.20;42.10;;;;;;;2.01;45.44;99980.39;104699;1260;95757;-65
2023/02/11 22:21:29;;;;;;;59.30;34.00;;;;;;;2.01;44.42;99979.35;104607;1260;108702;-65
2023/02/11 22:23:57;;;;;;;77.90;45.00;;;;;;;2.01;45.04;99986.69;104464;1267;100942;-65
2023/02/11 22:26:27;;;;;;;58.60;33.80;;;;;;;2.01;45.18;99991.42;104765;1261;107630;-64
2023/02/11 22:28:55;;;;;;;53.30;31.70;;;;;;;2.01;43.91;99995.43;104696;1261;95330;-64
2023/02/11 22:31:27;;;;;;;61.10;34.60;;;;;;;2.03;48.90;100004.32;104668;1260;95747;-64
2023/02/11 22:33:57;;;;;;;53.90;32.20;;;;;;;2.02;43.61;100004.67;104547;1261;108291;-64
2023/02/11 22:36:28;;;;;;;52.10;29.60;;;;;;;2.03;45.63;100007.47;104583;1259;100831;-64
2023/02/11 22:39:00;;;;;;;50.90;29.20;;;;;;;2.04;47.42;100009.02;104584;1259;107355;-64
2023/02/11 22:41:29;;;;;;;50.50;28.50;;;;;;;2.03;44.72;100006.77;104524;1260;96188;-64
2023/02/11 22:43:57;;;;;;;51.70;29.60;;;;;;;2.03;45.94;100007.13;104588;1261;95791;-64
2023/02/11 22:46:25;;;;;;;54.50;30.00;;;;;;;2.02;47.40;100010.64;104535;1261;108804;-64
2023/02/11 22:48:53;;;;;;;50.30;29.30;;;;;;;2.01;44.64;100011.36;104595;1261;100570;-64
2023/02/11 22:51:24;;;;;;;48.80;30.90;;;;;;;2.02;46.22;100013.80;104600;1262;107966;-64
2023/02/11 22:53:55;;;;;;;51.30;28.40;;;;;;;2.03;47.28;100019.37;104507;1264;96681;-64
2023/02/11 22:56:25;;;;;;;50.40;30.10;;;;;;;2.02;45.77;100014.50;104522;1261;96099;-64
2023/02/11 22:58:56;;;;;;;53.00;30.70;;;;;;;2.00;45.15;100012.80;104531;1261;109057;-65
2023/02/11 23:01:25;;;;;;;51.20;28.60;;;;;;;2.00;46.85;100020.48;104609;1262;100889;-65
2023/02/11 23:03:53;;;;;;;52.30;29.80;;;;;;;2.00;46.20;100019.96;104544;1260;108755;-65
2023/02/11 23:06:22;;;;;;;49.70;28.60;;;;;;;2.00;49.32;100016.45;104538;1261;95310;-65
2023/02/11 23:08:50;;;;;;;53.00;30.10;;;;;;;1.99;48.16;100019.10;104469;1261;95785;-65
2023/02/11 23:11:29;;;;;;;58.00;32.10;;;;;;;1.99;47.46;100024.01;104677;1261;108644;-65
2023/02/11 23:13:58;;;;;;;59.70;33.10;;;;;;;1.98;46.72;100032.43;104560;1272;100784;-65
2023/02/11 23:16:29;;;;;;;78.30;43.90;;;;;;;1.97;45.72;100030.67;104641;1260;106879;-65
2023/02/11 23:19:03;;;;;;;72.20;41.20;;;;;;;1.97;49.19;100032.97;104483;1262;95258;-65
2023/02/11 23:21:51;;;;;;;81.70;42.90;;;;;;;1.97;48.87;100031.21;104460;1261;95680;-65
2023/02/11 23:24:19;;;;;;;77.90;39.70;;;;;;;1.97;48.95;100025.10;104563;1261;108613;-65
2023/02/11 23:26:47;;;;;;;84.80;49.20;;;;;;;1.96;49.90;100026.67;104486;1261;101783;-65
2023/02/11 23:29:16;;;;;;;79.60;42.20;;;;;;;1.97;50.66;100028.44;104529;1262;107755;-65
2023/02/11 23:31:45;;;;;;;59.70;33.70;;;;;;;1.96;52.40;100032.63;104547;1261;95418;-65
2023/02/11 23:34:22;;;;;;;73.60;41.60;;;;;;;1.97;49.64;100034.20;104695;1261;95251;-65
2023/02/11 23:36:51;;;;;;;77.20;40.90;;;;;;;1.96;47.39;100034.57;104404;1262;108054;-65
2023/02/11 23:39:19;;;;;;;73.90;40.70;;;;;;;1.96;46.88;100036.31;104617;1269;100831;-65
2023/02/11 23:41:51;;;;;;;67.80;37.90;;;;;;;1.96;50.40;100039.45;104585;1257;108243;-65
2023/02/11 23:44:18;;;;;;;58.30;35.20;;;;;;;1.97;49.71;100041.38;104523;1262;95279;-65
2023/02/11 23:46:46;;;;;;;56.00;32.00;;;;;;;1.97;48.20;100040.66;104696;1271;96784;-65
2023/02/11 23:49:14;;;;;;;58.60;32.70;;;;;;;1.97;48.79;100038.91;104582;1261;108452;-65
2023/02/11 23:51:42;;;;;;;53.00;30.80;;;;;;;1.98;50.09;100048.17;104706;1261;100667;-65
2023/02/11 23:54:13;;;;;;;60.20;35.40;;;;;;;1.98;50.32;100046.59;104458;1264;108394;-65
2023/02/11 23:56:42;;;;;;;55.70;33.30;;;;;;;1.98;48.73;100051.50;104560;1261;95347;-65
2023/02/11 23:59:10;;;;;;;54.80;31.10;;;;;;;1.97;48.95;100055.87;104598;1271;95286;-65
